Terminal Aerodrome Forecast
Issued by NWS Portland, OR

Home | Current Version | Previous Version | Text Only | Print | Product List | Glossary On
Versions: 1 2 3 4 5 6 7 8 9 10 11 12 13 14 15 16 17 18 19 20 21 22 23 24 25 26 27 28
000
FTUS46 KPQR 211143
TAFSLE
TAF
KSLE 211143Z 2112/2212 VRB03KT P6SM SCT250
     FM211600 33006KT P6SM BKN022
     FM212000 33007KT P6SM SCT025 BKN045
     FM220000 34014G24KT P6SM SCT025 OVC045
     FM220300 32011KT P6SM OVC045=

USA.gov is the U.S. government's official web portal to all federal, state and local government web resources and services.